sensor_id;sensor_type;location;lat;lon;timestamp;pressure;altitude;pressure_sealevel;temperature;humidity
58690;BME280;44470;53.206;-6.106;2024-03-08T00:01:35;101278.13;;;20.63;43.23
58690;BME280;44470;53.206;-6.106;2024-03-08T00:04:00;101287.06;;;20.62;43.27
58690;BME280;44470;53.206;-6.106;2024-03-08T00:06:26;101284.41;;;20.62;43.21
58690;BME280;44470;53.206;-6.106;2024-03-08T00:44:37;101268.38;;;20.59;43.21
58690;BME280;44470;53.206;-6.106;2024-03-08T00:47:03;101252.41;;;20.56;42.80
58690;BME280;44470;53.206;-6.106;2024-03-08T00:49:29;101253.28;;;20.56;42.81
58690;BME280;44470;53.206;-6.106;2024-03-08T00:51:54;101257.75;;;20.57;43.10
58690;BME280;44470;53.206;-6.106;2024-03-08T00:54:20;101247.03;;;20.56;42.70
58690;BME280;44470;53.206;-6.106;2024-03-08T00:56:45;101250.59;;;20.58;42.63
58690;BME280;44470;53.206;-6.106;2024-03-08T00:59:11;101255.06;;;20.57;42.71
58690;BME280;44470;53.206;-6.106;2024-03-08T01:01:36;101242.59;;;20.56;42.83
58690;BME280;44470;53.206;-6.106;2024-03-08T01:04:01;101248.84;;;20.54;42.89
58690;BME280;44470;53.206;-6.106;2024-03-08T01:06:27;101239.06;;;20.54;43.13
58690;BME280;44470;53.206;-6.106;2024-03-08T01:08:52;101244.38;;;20.57;42.63
58690;BME280;44470;53.206;-6.106;2024-03-08T01:11:18;101234.56;;;20.56;42.67
58690;BME280;44470;53.206;-6.106;2024-03-08T01:13:44;101232.78;;;20.57;43.02
58690;BME280;44470;53.206;-6.106;2024-03-08T01:16:12;101237.25;;;20.55;42.75
58690;BME280;44470;53.206;-6.106;2024-03-08T01:18:38;101231.94;;;20.53;42.80
58690;BME280;44470;53.206;-6.106;2024-03-08T01:21:03;101227.50;;;20.52;42.71
58690;BME280;44470;53.206;-6.106;2024-03-08T01:23:29;101227.47;;;20.54;42.75
58690;BME280;44470;53.206;-6.106;2024-03-08T01:25:55;101229.28;;;20.52;42.78
58690;BME280;44470;53.206;-6.106;2024-03-08T01:28:25;101223.03;;;20.53;42.38
58690;BME280;44470;53.206;-6.106;2024-03-08T01:30:51;101221.25;;;20.53;42.80
58690;BME280;44470;53.206;-6.106;2024-03-08T01:33:23;101219.50;;;20.51;42.58
58690;BME280;44470;53.206;-6.106;2024-03-08T01:35:54;101215.91;;;20.53;42.62
58690;BME280;44470;53.206;-6.106;2024-03-08T01:38:19;101215.91;;;20.53;42.76
58690;BME280;44470;53.206;-6.106;2024-03-08T01:40:48;101214.13;;;20.52;42.69
58690;BME280;44470;53.206;-6.106;2024-03-08T01:43:20;101209.69;;;20.50;42.38
58690;BME280;44470;53.206;-6.106;2024-03-08T01:45:46;101209.69;;;20.50;42.53
58690;BME280;44470;53.206;-6.106;2024-03-08T01:48:12;101207.03;;;20.51;42.66
58690;BME280;44470;53.206;-6.106;2024-03-08T01:50:38;101214.13;;;20.52;42.59
58690;BME280;44470;53.206;-6.106;2024-03-08T01:53:04;101206.13;;;20.51;43.01
58690;BME280;44470;53.206;-6.106;2024-03-08T01:55:30;101194.56;;;20.48;42.79
58690;BME280;44470;53.206;-6.106;2024-03-08T01:57:56;101194.56;;;20.50;42.78
58690;BME280;44470;53.206;-6.106;2024-03-08T02:00:21;101198.09;;;20.51;42.64
58690;BME280;44470;53.206;-6.106;2024-03-08T02:02:49;101189.16;;;20.53;42.72
58690;BME280;44470;53.206;-6.106;2024-03-08T02:05:14;101197.25;;;20.48;42.94
58690;BME280;44470;53.206;-6.106;2024-03-08T02:07:41;101193.69;;;20.48;42.79
58690;BME280;44470;53.206;-6.106;2024-03-08T02:10:09;101186.53;;;20.48;42.97
58690;BME280;44470;53.206;-6.106;2024-03-08T02:12:35;101191.91;;;20.48;42.89
58690;BME280;44470;53.206;-6.106;2024-03-08T02:15:01;101183.88;;;20.50;42.55
58690;BME280;44470;53.206;-6.106;2024-03-08T02:17:26;101182.09;;;20.49;42.71
58690;BME280;44470;53.206;-6.106;2024-03-08T02:19:52;101174.09;;;20.47;42.38
58690;BME280;44470;53.206;-6.106;2024-03-08T02:22:17;101174.09;;;20.47;42.40
58690;BME280;44470;53.206;-6.106;2024-03-08T02:24:43;101166.09;;;20.46;42.89
58690;BME280;44470;53.206;-6.106;2024-03-08T02:27:09;101167.88;;;20.47;42.57
58690;BME280;44470;53.206;-6.106;2024-03-08T02:29:37;101156.28;;;20.46;42.84
58690;BME280;44470;53.206;-6.106;2024-03-08T02:32:02;101154.50;;;20.47;42.69
58690;BME280;44470;53.206;-6.106;2024-03-08T02:34:28;101155.41;;;20.46;42.46
58690;BME280;44470;53.206;-6.106;2024-03-08T02:36:54;101150.94;;;20.46;42.37
58690;BME280;44470;53.206;-6.106;2024-03-08T02:39:21;101145.59;;;20.46;42.30
58690;BME280;44470;53.206;-6.106;2024-03-08T02:41:47;101147.34;;;20.47;41.96
58690;BME280;44470;53.206;-6.106;2024-03-08T02:44:12;101138.47;;;20.45;42.21
58690;BME280;44470;53.206;-6.106;2024-03-08T02:46:40;101136.66;;;20.47;42.67
58690;BME280;44470;53.206;-6.106;2024-03-08T02:49:07;101133.13;;;20.45;42.32
58690;BME280;44470;53.206;-6.106;2024-03-08T02:51:34;101131.34;;;20.44;42.31
58690;BME280;44470;53.206;-6.106;2024-03-08T02:54:03;101119.78;;;20.44;42.20
58690;BME280;44470;53.206;-6.106;2024-03-08T02:56:30;101117.09;;;20.45;42.13
58690;BME280;44470;53.206;-6.106;2024-03-08T02:59:01;101109.97;;;20.44;42.12
58690;BME280;44470;53.206;-6.106;2024-03-08T03:01:28;101100.16;;;20.45;42.30
58690;BME280;44470;53.206;-6.106;2024-03-08T03:03:56;101090.34;;;20.45;42.40
58690;BME280;44470;53.206;-6.106;2024-03-08T03:06:22;101090.38;;;20.44;42.07
58690;BME280;44470;53.206;-6.106;2024-03-08T03:22:37;101073.44;;;20.43;42.32
58690;BME280;44470;53.206;-6.106;2024-03-08T03:25:04;101069.00;;;20.42;42.38
58690;BME280;44470;53.206;-6.106;2024-03-08T03:27:32;101069.88;;;20.44;42.45
58690;BME280;44470;53.206;-6.106;2024-03-08T03:29:58;101060.97;;;20.44;42.49
58690;BME280;44470;53.206;-6.106;2024-03-08T03:32:24;101060.97;;;20.44;42.29
58690;BME280;44470;53.206;-6.106;2024-03-08T03:34:50;101052.97;;;20.42;42.07
58690;BME280;44470;53.206;-6.106;2024-03-08T03:37:18;101060.03;;;20.46;41.94
58690;BME280;44470;53.206;-6.106;2024-03-08T03:39:45;101059.16;;;20.44;42.09
58690;BME280;44470;53.206;-6.106;2024-03-08T03:42:18;101053.81;;;20.46;42.34
58690;BME280;44470;53.206;-6.106;2024-03-08T03:44:45;101047.56;;;20.45;42.44
58690;BME280;44470;53.206;-6.106;2024-03-08T03:47:11;101044.91;;;20.45;42.34
58690;BME280;44470;53.206;-6.106;2024-03-08T03:49:36;101040.41;;;20.47;42.66
58690;BME280;44470;53.206;-6.106;2024-03-08T03:52:02;101035.97;;;20.46;42.11
58690;BME280;44470;53.206;-6.106;2024-03-08T03:54:29;101029.72;;;20.47;42.01
58690;BME280;44470;53.206;-6.106;2024-03-08T03:56:56;101035.06;;;20.47;42.36
58690;BME280;44470;53.206;-6.106;2024-03-08T03:59:21;101029.72;;;20.47;42.14
58690;BME280;44470;53.206;-6.106;2024-03-08T04:01:47;101026.16;;;20.47;42.00
58690;BME280;44470;53.206;-6.106;2024-03-08T04:04:12;101026.13;;;20.48;42.32
58690;BME280;44470;53.206;-6.106;2024-03-08T04:06:38;101019.91;;;20.48;41.96
58690;BME280;44470;53.206;-6.106;2024-03-08T04:09:03;101015.41;;;20.50;42.16
58690;BME280;44470;53.206;-6.106;2024-03-08T04:11:30;101022.53;;;20.50;42.32
58690;BME280;44470;53.206;-6.106;2024-03-08T04:13:58;101017.19;;;20.50;42.14
58690;BME280;44470;53.206;-6.106;2024-03-08T04:16:23;101009.22;;;20.46;41.97
58690;BME280;44470;53.206;-6.106;2024-03-08T04:18:49;101015.44;;;20.48;42.13
58690;BME280;44470;53.206;-6.106;2024-03-08T04:21:15;101015.38;;;20.52;41.85
58690;BME280;44470;53.206;-6.106;2024-03-08T04:23:40;101016.28;;;20.51;41.72
58690;BME280;44470;53.206;-6.106;2024-03-08T04:26:06;101001.16;;;20.50;42.06
58690;BME280;44470;53.206;-6.106;2024-03-08T04:28:34;101009.16;;;20.51;41.87
58690;BME280;44470;53.206;-6.106;2024-03-08T04:30:59;101002.00;;;20.53;41.96
58690;BME280;44470;53.206;-6.106;2024-03-08T04:33:26;100998.47;;;20.51;41.45
58690;BME280;44470;53.206;-6.106;2024-03-08T04:35:51;100997.50;;;20.54;41.76
58690;BME280;44470;53.206;-6.106;2024-03-08T04:38:17;100996.59;;;20.55;42.07
58690;BME280;44470;53.206;-6.106;2024-03-08T04:40:42;100990.38;;;20.54;41.90
58690;BME280;44470;53.206;-6.106;2024-03-08T04:43:08;100985.06;;;20.53;41.63
58690;BME280;44470;53.206;-6.106;2024-03-08T04:45:34;100983.22;;;20.55;42.19
58690;BME280;44470;53.206;-6.106;2024-03-08T04:47:59;100983.28;;;20.52;41.66
58690;BME280;44470;53.206;-6.106;2024-03-08T04:50:25;100983.28;;;20.53;41.91
58690;BME280;44470;53.206;-6.106;2024-03-08T04:52:50;100983.22;;;20.56;42.10
58690;BME280;44470;53.206;-6.106;2024-03-08T04:55:15;100981.41;;;20.57;42.08
58690;BME280;44470;53.206;-6.106;2024-03-08T04:57:41;100971.66;;;20.54;41.89
58690;BME280;44470;53.206;-6.106;2024-03-08T05:00:11;100971.66;;;20.54;41.74
58690;BME280;44470;53.206;-6.106;2024-03-08T05:02:37;100976.97;;;20.56;41.64
58690;BME280;44470;53.206;-6.106;2024-03-08T05:05:07;100971.59;;;20.57;41.85
58690;BME280;44470;53.206;-6.106;2024-03-08T05:07:32;100973.38;;;20.58;41.47
58690;BME280;44470;53.206;-6.106;2024-03-08T05:09:58;100967.06;;;20.61;41.73
58690;BME280;44470;53.206;-6.106;2024-03-08T05:12:23;100967.13;;;20.58;41.62
58690;BME280;44470;53.206;-6.106;2024-03-08T05:14:49;100952.88;;;20.57;42.33
58690;BME280;44470;53.206;-6.106;2024-03-08T05:17:15;100960.00;;;20.57;41.89
58690;BME280;44470;53.206;-6.106;2024-03-08T05:19:41;100952.81;;;20.60;41.10
58690;BME280;44470;53.206;-6.106;2024-03-08T05:22:06;100952.84;;;20.59;41.36
58690;BME280;44470;53.206;-6.106;2024-03-08T05:24:32;100948.38;;;20.59;41.52
58690;BME280;44470;53.206;-6.106;2024-03-08T05:26:58;100959.09;;;20.58;41.74
58690;BME280;44470;53.206;-6.106;2024-03-08T05:29:25;100944.81;;;20.60;41.50
58690;BME280;44470;53.206;-6.106;2024-03-08T05:31:51;100945.72;;;20.59;41.42
58690;BME280;44470;53.206;-6.106;2024-03-08T05:34:20;100949.25;;;20.61;41.09
58690;BME280;44470;53.206;-6.106;2024-03-08T05:36:46;100935.81;;;20.63;41.84
58690;BME280;44470;53.206;-6.106;2024-03-08T05:39:12;100926.03;;;20.62;41.31
58690;BME280;44470;53.206;-6.106;2024-03-08T05:41:38;100924.22;;;20.64;41.63
58690;BME280;44470;53.206;-6.106;2024-03-08T05:44:04;100928.69;;;20.64;41.36
58690;BME280;44470;53.206;-6.106;2024-03-08T05:46:30;100923.34;;;20.64;41.22
58690;BME280;44470;53.206;-6.106;2024-03-08T05:48:55;100925.13;;;20.65;41.72
58690;BME280;44470;53.206;-6.106;2024-03-08T05:51:20;100921.53;;;20.66;41.55
58690;BME280;44470;53.206;-6.106;2024-03-08T05:53:48;100920.69;;;20.62;41.54
58690;BME280;44470;53.206;-6.106;2024-03-08T05:56:14;100920.63;;;20.65;41.12
58690;BME280;44470;53.206;-6.106;2024-03-08T05:58:39;100919.75;;;20.65;41.15
58690;BME280;44470;53.206;-6.106;2024-03-08T06:01:05;100909.16;;;20.60;41.48
58690;BME280;44470;53.206;-6.106;2024-03-08T06:03:33;100915.28;;;20.65;41.48
58690;BME280;44470;53.206;-6.106;2024-03-08T06:05:59;100901.97;;;20.64;41.15
58690;BME280;44470;53.206;-6.106;2024-03-08T06:08:24;100899.22;;;20.65;41.92
58690;BME280;44470;53.206;-6.106;2024-03-08T06:10:55;100901.00;;;20.66;41.14
58690;BME280;44470;53.206;-6.106;2024-03-08T06:13:20;100903.66;;;20.68;41.40
58690;BME280;44470;53.206;-6.106;2024-03-08T06:15:46;100907.13;;;20.73;41.22
58690;BME280;44470;53.206;-6.106;2024-03-08T06:18:11;100900.09;;;20.67;41.15
58690;BME280;44470;53.206;-6.106;2024-03-08T06:20:37;100897.31;;;20.72;41.01
58690;BME280;44470;53.206;-6.106;2024-03-08T06:23:02;100892.03;;;20.70;41.23
58690;BME280;44470;53.206;-6.106;2024-03-08T06:25:28;100895.63;;;20.69;41.28
58690;BME280;44470;53.206;-6.106;2024-03-08T06:27:53;100894.69;;;20.70;41.21
58690;BME280;44470;53.206;-6.106;2024-03-08T06:30:18;100892.94;;;20.69;41.24
58690;BME280;44470;53.206;-6.106;2024-03-08T06:32:45;100886.63;;;20.73;41.08
58690;BME280;44470;53.206;-6.106;2024-03-08T06:35:11;100878.59;;;20.73;41.03
58690;BME280;44470;53.206;-6.106;2024-03-08T06:37:36;100870.66;;;20.67;40.55
58690;BME280;44470;53.206;-6.106;2024-03-08T06:40:02;100875.97;;;20.70;41.20
58690;BME280;44470;53.206;-6.106;2024-03-08T06:42:28;100873.34;;;20.67;41.05
58690;BME280;44470;53.206;-6.106;2024-03-08T06:44:54;100870.63;;;20.70;40.84
58690;BME280;44470;53.206;-6.106;2024-03-08T06:47:25;100864.38;;;20.70;41.23
58690;BME280;44470;53.206;-6.106;2024-03-08T06:49:51;100870.56;;;20.73;41.11
58690;BME280;44470;53.206;-6.106;2024-03-08T06:52:17;100867.97;;;20.70;40.82
58690;BME280;44470;53.206;-6.106;2024-03-08T06:54:42;100863.53;;;20.69;40.81
58690;BME280;44470;53.206;-6.106;2024-03-08T06:57:08;100862.63;;;20.69;41.04
58690;BME280;44470;53.206;-6.106;2024-03-08T06:59:35;100856.38;;;20.70;41.03
58690;BME280;44470;53.206;-6.106;2024-03-08T07:02:01;100860.72;;;20.74;40.81
58690;BME280;44470;53.206;-6.106;2024-03-08T07:04:26;100849.97;;;20.77;41.01
58690;BME280;44470;53.206;-6.106;2024-03-08T07:06:57;100840.28;;;20.71;40.80
58690;BME280;44470;53.206;-6.106;2024-03-08T07:09:23;100848.25;;;20.74;40.67
58690;BME280;44470;53.206;-6.106;2024-03-08T07:11:49;100854.44;;;20.76;41.00
58690;BME280;44470;53.206;-6.106;2024-03-08T07:14:23;100855.38;;;20.75;40.72
58690;BME280;44470;53.206;-6.106;2024-03-08T07:16:49;100850.09;;;20.71;40.81
58690;BME280;44470;53.206;-6.106;2024-03-08T07:19:14;100851.72;;;20.78;41.29
58690;BME280;44470;53.206;-6.106;2024-03-08T07:21:40;100852.78;;;20.71;41.17
58690;BME280;44470;53.206;-6.106;2024-03-08T07:24:07;100863.28;;;20.82;40.73
58690;BME280;44470;53.206;-6.106;2024-03-08T07:26:53;100856.13;;;20.82;41.44
58690;BME280;44470;53.206;-6.106;2024-03-08T07:29:19;100855.31;;;20.77;40.88
58690;BME280;44470;53.206;-6.106;2024-03-08T07:31:44;100858.88;;;20.77;41.58
58690;BME280;44470;53.206;-6.106;2024-03-08T07:34:16;100863.28;;;20.82;41.07
58690;BME280;44470;53.206;-6.106;2024-03-08T07:36:41;100854.41;;;20.80;41.17
58690;BME280;44470;53.206;-6.106;2024-03-08T07:39:07;100859.72;;;20.81;41.10
58690;BME280;44470;53.206;-6.106;2024-03-08T07:41:37;100863.28;;;20.82;41.07
58690;BME280;44470;53.206;-6.106;2024-03-08T07:44:02;100862.44;;;20.80;41.05
58690;BME280;44470;53.206;-6.106;2024-03-08T07:46:29;100861.53;;;20.81;41.19
58690;BME280;44470;53.206;-6.106;2024-03-08T07:48:54;100861.53;;;20.81;40.83
58690;BME280;44470;53.206;-6.106;2024-03-08T07:51:19;100859.75;;;20.80;41.04
58690;BME280;44470;53.206;-6.106;2024-03-08T07:53:45;100849.00;;;20.83;40.69
58690;BME280;44470;53.206;-6.106;2024-03-08T07:56:11;100844.56;;;20.80;40.99
58690;BME280;44470;53.206;-6.106;2024-03-08T07:58:39;100847.31;;;20.79;40.72
58690;BME280;44470;53.206;-6.106;2024-03-08T08:01:06;100849.91;;;20.82;41.21
58690;BME280;44470;53.206;-6.106;2024-03-08T08:03:31;100842.00;;;20.75;40.67
58690;BME280;44470;53.206;-6.106;2024-03-08T08:05:56;100842.81;;;20.79;40.89
58690;BME280;44470;53.206;-6.106;2024-03-08T08:08:22;100833.84;;;20.82;41.13
58690;BME280;44470;53.206;-6.106;2024-03-08T08:10:47;100841.00;;;20.81;40.77
58690;BME280;44470;53.206;-6.106;2024-03-08T08:13:12;100828.50;;;20.82;40.82
58690;BME280;44470;53.206;-6.106;2024-03-08T08:15:38;100830.28;;;20.81;40.76
58690;BME280;44470;53.206;-6.106;2024-03-08T08:18:03;100831.25;;;20.79;40.71
58690;BME280;44470;53.206;-6.106;2024-03-08T08:20:30;100827.72;;;20.75;40.83
58690;BME280;44470;53.206;-6.106;2024-03-08T08:22:56;100819.69;;;20.75;40.93
58690;BME280;44470;53.206;-6.106;2024-03-08T08:25:22;100827.53;;;20.86;40.73
58690;BME280;44470;53.206;-6.106;2024-03-08T08:27:49;100820.50;;;20.82;40.91
58690;BME280;44470;53.206;-6.106;2024-03-08T08:30:15;100811.56;;;20.81;40.84
58690;BME280;44470;53.206;-6.106;2024-03-08T08:32:40;100819.44;;;20.87;40.28
58690;BME280;44470;53.206;-6.106;2024-03-08T08:35:07;100812.34;;;20.86;40.69
58690;BME280;44470;53.206;-6.106;2024-03-08T08:37:40;100815.94;;;20.85;40.38
58690;BME280;44470;53.206;-6.106;2024-03-08T08:40:06;100812.47;;;20.80;41.13
58690;BME280;44470;53.206;-6.106;2024-03-08T08:42:36;100806.13;;;20.84;40.74
58690;BME280;44470;53.206;-6.106;2024-03-08T08:45:01;100811.53;;;20.83;40.81
58690;BME280;44470;53.206;-6.106;2024-03-08T08:47:27;100802.56;;;20.85;40.80
58690;BME280;44470;53.206;-6.106;2024-03-08T08:49:52;100807.09;;;20.82;40.66
58690;BME280;44470;53.206;-6.106;2024-03-08T08:52:19;100803.53;;;20.83;40.67
58690;BME280;44470;53.206;-6.106;2024-03-08T08:54:44;100800.84;;;20.83;40.92
58690;BME280;44470;53.206;-6.106;2024-03-08T08:57:10;100791.84;;;20.87;40.59
58690;BME280;44470;53.206;-6.106;2024-03-08T08:59:36;100781.19;;;20.84;40.63
58690;BME280;44470;53.206;-6.106;2024-03-08T09:02:02;100781.19;;;20.84;40.80
58690;BME280;44470;53.206;-6.106;2024-03-08T09:04:29;100783.81;;;20.85;40.51
58690;BME280;44470;53.206;-6.106;2024-03-08T09:06:54;100781.13;;;20.87;40.64
58690;BME280;44470;53.206;-6.106;2024-03-08T09:09:20;100773.09;;;20.87;40.10
58690;BME280;44470;53.206;-6.106;2024-03-08T09:11:47;100774.03;;;20.86;40.32
58690;BME280;44470;53.206;-6.106;2024-03-08T09:14:12;100769.47;;;20.89;40.50
58690;BME280;44470;53.206;-6.106;2024-03-08T09:16:37;100766.84;;;20.88;40.20
58690;BME280;44470;53.206;-6.106;2024-03-08T09:19:03;100764.19;;;20.86;40.50
58690;BME280;44470;53.206;-6.106;2024-03-08T09:21:28;100757.84;;;20.90;39.92
58690;BME280;44470;53.206;-6.106;2024-03-08T09:23:55;100759.56;;;20.95;40.01
58690;BME280;44470;53.206;-6.106;2024-03-08T09:26:20;100763.09;;;20.95;40.08
58690;BME280;44470;53.206;-6.106;2024-03-08T09:28:47;100761.50;;;20.88;40.18
58690;BME280;44470;53.206;-6.106;2024-03-08T09:31:12;100765.00;;;20.90;40.10
58690;BME280;44470;53.206;-6.106;2024-03-08T09:33:38;100762.41;;;20.87;40.22
58690;BME280;44470;53.206;-6.106;2024-03-08T09:36:05;100754.38;;;20.87;40.31
58690;BME280;44470;53.206;-6.106;2024-03-08T09:38:30;100755.28;;;20.86;40.52
58690;BME280;44470;53.206;-6.106;2024-03-08T09:40:56;100744.44;;;20.92;40.26
58690;BME280;44470;53.206;-6.106;2024-03-08T09:43:22;100748.03;;;20.91;40.48
58690;BME280;44470;53.206;-6.106;2024-03-08T09:45:49;100748.88;;;20.93;40.51
58690;BME280;44470;53.206;-6.106;2024-03-08T09:48:14;100747.13;;;20.92;40.13
58690;BME280;44470;53.206;-6.106;2024-03-08T09:50:42;100738.25;;;20.90;40.33
58690;BME280;44470;53.206;-6.106;2024-03-08T09:53:07;100737.28;;;20.93;40.68
58690;BME280;44470;53.206;-6.106;2024-03-08T09:55:36;100726.47;;;20.97;40.29
58690;BME280;44470;53.206;-6.106;2024-03-08T09:58:02;100717.69;;;20.92;40.19
58690;BME280;44470;53.206;-6.106;2024-03-08T10:00:49;100719.47;;;20.91;40.62
58690;BME280;44470;53.206;-6.106;2024-03-08T10:03:14;100709.66;;;20.92;40.54
58690;BME280;44470;53.206;-6.106;2024-03-08T10:05:43;100711.44;;;20.93;40.58
58690;BME280;44470;53.206;-6.106;2024-03-08T10:08:09;100708.66;;;20.96;40.49
58690;BME280;44470;53.206;-6.106;2024-03-08T10:10:36;100701.53;;;20.97;40.42
58690;BME280;44470;53.206;-6.106;2024-03-08T10:13:05;100708.66;;;20.98;40.46
58690;BME280;44470;53.206;-6.106;2024-03-08T10:15:31;100691.69;;;20.97;40.66
58690;BME280;44470;53.206;-6.106;2024-03-08T10:17:58;100696.97;;;21.00;40.31
58690;BME280;44470;53.206;-6.106;2024-03-08T10:20:23;100692.53;;;20.99;40.78
58690;BME280;44470;53.206;-6.106;2024-03-08T10:22:49;100683.59;;;21.00;40.05
58690;BME280;44470;53.206;-6.106;2024-03-08T10:25:14;100682.91;;;20.92;40.79
58690;BME280;44470;53.206;-6.106;2024-03-08T10:27:40;100681.09;;;20.94;40.58
58690;BME280;44470;53.206;-6.106;2024-03-08T10:30:10;100672.13;;;20.95;40.96
58690;BME280;44470;53.206;-6.106;2024-03-08T10:32:35;100675.56;;;21.00;40.60
58690;BME280;44470;53.206;-6.106;2024-03-08T10:35:01;100671.06;;;21.02;40.62
58690;BME280;44470;53.206;-6.106;2024-03-08T10:37:26;100659.50;;;21.00;40.80
58690;BME280;44470;53.206;-6.106;2024-03-08T10:40:03;100669.44;;;20.97;40.63
58690;BME280;44470;53.206;-6.106;2024-03-08T10:42:37;100663.13;;;20.99;40.36
58690;BME280;44470;53.206;-6.106;2024-03-08T10:45:05;100656.91;;;20.97;40.38
58690;BME280;44470;53.206;-6.106;2024-03-08T10:47:38;100669.31;;;21.01;40.47
58690;BME280;44470;53.206;-6.106;2024-03-08T10:50:39;100663.13;;;20.99;40.93
58690;BME280;44470;53.206;-6.106;2024-03-08T10:52:59;100672.06;;;20.98;40.40
58690;BME280;44470;53.206;-6.106;2024-03-08T10:55:26;100670.13;;;21.03;40.80
58690;BME280;44470;53.206;-6.106;2024-03-08T10:57:53;100671.97;;;21.01;40.66
58690;BME280;44470;53.206;-6.106;2024-03-08T11:00:19;100668.47;;;20.99;40.68
58690;BME280;44470;53.206;-6.106;2024-03-08T11:02:52;100671.03;;;21.04;40.73
58690;BME280;44470;53.206;-6.106;2024-03-08T11:08:24;100661.34;;;20.98;40.36
58690;BME280;44470;53.206;-6.106;2024-03-08T11:10:53;100654.91;;;21.05;40.74
58690;BME280;44470;53.206;-6.106;2024-03-08T11:13:40;100652.41;;;20.99;40.68
58690;BME280;44470;53.206;-6.106;2024-03-08T11:16:39;100653.25;;;21.01;40.23
58690;BME280;44470;53.206;-6.106;2024-03-08T11:18:58;100640.84;;;20.99;40.73
58690;BME280;44470;53.206;-6.106;2024-03-08T11:21:29;100635.28;;;21.07;40.40
58690;BME280;44470;53.206;-6.106;2024-03-08T11:24:06;100635.41;;;21.02;40.56
58690;BME280;44470;53.206;-6.106;2024-03-08T11:26:33;100639.94;;;20.98;40.58
58690;BME280;44470;53.206;-6.106;2024-03-08T11:31:45;100619.28;;;21.05;40.21
58690;BME280;44470;53.206;-6.106;2024-03-08T11:34:17;100629.00;;;21.08;40.11
58690;BME280;44470;53.206;-6.106;2024-03-08T11:36:44;100633.41;;;21.10;40.33
58690;BME280;44470;53.206;-6.106;2024-03-08T11:39:13;100628.06;;;21.10;40.41
58690;BME280;44470;53.206;-6.106;2024-03-08T11:41:39;100626.56;;;20.98;40.27
58690;BME280;44470;53.206;-6.106;2024-03-08T11:44:06;100618.53;;;21.00;40.19
58690;BME280;44470;53.206;-6.106;2024-03-08T11:46:33;100619.34;;;21.02;40.51
58690;BME280;44470;53.206;-6.106;2024-03-08T11:48:59;100626.50;;;21.01;40.40
58690;BME280;44470;53.206;-6.106;2024-03-08T11:51:26;100627.59;;;20.93;40.62
58690;BME280;44470;53.206;-6.106;2024-03-08T11:53:51;100622.13;;;20.97;40.30
58690;BME280;44470;53.206;-6.106;2024-03-08T11:56:17;100623.91;;;20.98;40.18
58690;BME280;44470;53.206;-6.106;2024-03-08T11:58:52;100612.34;;;20.96;40.19
58690;BME280;44470;53.206;-6.106;2024-03-08T12:01:18;100618.47;;;21.01;40.52
58690;BME280;44470;53.206;-6.106;2024-03-08T12:03:43;100613.91;;;21.05;40.37
58690;BME280;44470;53.206;-6.106;2024-03-08T12:06:09;100611.34;;;21.00;40.33
58690;BME280;44470;53.206;-6.106;2024-03-08T12:08:35;100615.53;;;21.11;40.30
58690;BME280;44470;53.206;-6.106;2024-03-08T12:11:00;100612.16;;;21.04;40.34
58690;BME280;44470;53.206;-6.106;2024-03-08T12:13:26;100612.09;;;21.05;40.35
58690;BME280;44470;53.206;-6.106;2024-03-08T12:15:57;100611.16;;;21.08;40.41
58690;BME280;44470;53.206;-6.106;2024-03-08T12:18:24;100608.50;;;21.07;40.47
58690;BME280;44470;53.206;-6.106;2024-03-08T12:20:49;100599.72;;;21.01;40.66
58690;BME280;44470;53.206;-6.106;2024-03-08T12:23:15;100591.75;;;21.00;40.07
58690;BME280;44470;53.206;-6.106;2024-03-08T12:25:41;100584.44;;;21.07;40.61
58690;BME280;44470;53.206;-6.106;2024-03-08T12:28:10;100584.44;;;21.07;40.42
58690;BME280;44470;53.206;-6.106;2024-03-08T12:30:46;100589.88;;;21.03;40.14
58690;BME280;44470;53.206;-6.106;2024-03-08T12:33:12;100580.16;;;20.99;40.11
58690;BME280;44470;53.206;-6.106;2024-03-08T12:35:38;100577.41;;;21.02;40.78
58690;BME280;44470;53.206;-6.106;2024-03-08T12:38:03;100571.88;;;21.09;40.11
58690;BME280;44470;53.206;-6.106;2024-03-08T12:40:29;100579.88;;;21.10;40.31
58690;BME280;44470;53.206;-6.106;2024-03-08T12:42:56;100569.22;;;21.09;39.89
58690;BME280;44470;53.206;-6.106;2024-03-08T12:45:22;100565.84;;;21.02;40.14
58690;BME280;44470;53.206;-6.106;2024-03-08T12:47:52;100561.34;;;21.02;40.44
58690;BME280;44470;53.206;-6.106;2024-03-08T12:50:18;100559.59;;;21.01;39.85
58690;BME280;44470;53.206;-6.106;2024-03-08T12:52:44;100556.00;;;21.02;40.60
58690;BME280;44470;53.206;-6.106;2024-03-08T12:55:09;100556.09;;;20.99;40.55
58690;BME280;44470;53.206;-6.106;2024-03-08T12:57:35;100552.41;;;21.03;40.63
58690;BME280;44470;53.206;-6.106;2024-03-08T13:00:01;100556.00;;;21.02;40.29
58690;BME280;44470;53.206;-6.106;2024-03-08T13:02:28;100555.00;;;21.07;40.14
58690;BME280;44470;53.206;-6.106;2024-03-08T13:04:53;100538.25;;;21.00;40.49
58690;BME280;44470;53.206;-6.106;2024-03-08T13:07:29;100550.56;;;21.05;40.65
58690;BME280;44470;53.206;-6.106;2024-03-08T13:09:56;100549.72;;;21.03;40.45
58690;BME280;44470;53.206;-6.106;2024-03-08T13:12:24;100542.69;;;21.01;40.54
58690;BME280;44470;53.206;-6.106;2024-03-08T13:14:50;100537.34;;;21.01;40.66
58690;BME280;44470;53.206;-6.106;2024-03-08T13:17:16;100547.78;;;21.10;40.62
58690;BME280;44470;53.206;-6.106;2024-03-08T13:19:46;100539.78;;;21.09;40.53
58690;BME280;44470;53.206;-6.106;2024-03-08T13:22:11;100532.75;;;21.04;40.56
58690;BME280;44470;53.206;-6.106;2024-03-08T13:24:41;100534.75;;;20.98;40.27
58690;BME280;44470;53.206;-6.106;2024-03-08T13:27:07;100531.09;;;21.00;40.80
58690;BME280;44470;53.206;-6.106;2024-03-08T13:29:42;100523.81;;;21.05;40.78
58690;BME280;44470;53.206;-6.106;2024-03-08T13:32:08;100520.22;;;21.07;40.97
58690;BME280;44470;53.206;-6.106;2024-03-08T13:34:37;100514.69;;;21.13;40.60